sensor_id;sensor_type;location;lat;lon;timestamp;temperature;humidity
59505;DHT22;45321;53.200;5.814;2022-10-31T00:00:44;14.50;85.40
59505;DHT22;45321;53.200;5.814;2022-10-31T00:03:10;14.50;85.40
59505;DHT22;45321;53.200;5.814;2022-10-31T00:05:35;14.50;85.40
59505;DHT22;45321;53.200;5.814;2022-10-31T00:08:01;14.50;85.40
59505;DHT22;45321;53.200;5.814;2022-10-31T00:10:27;14.50;85.40
59505;DHT22;45321;53.200;5.814;2022-10-31T00:12:53;14.50;85.40
59505;DHT22;45321;53.200;5.814;2022-10-31T00:15:18;14.50;85.50
59505;DHT22;45321;53.200;5.814;2022-10-31T00:17:44;14.50;85.40
59505;DHT22;45321;53.200;5.814;2022-10-31T00:20:10;14.50;85.20
59505;DHT22;45321;53.200;5.814;2022-10-31T00:22:36;14.40;85.50
59505;DHT22;45321;53.200;5.814;2022-10-31T00:25:01;14.50;85.30
59505;DHT22;45321;53.200;5.814;2022-10-31T00:27:27;14.50;85.40
59505;DHT22;45321;53.200;5.814;2022-10-31T00:29:53;14.50;85.30
59505;DHT22;45321;53.200;5.814;2022-10-31T00:32:18;14.40;85.40
59505;DHT22;45321;53.200;5.814;2022-10-31T00:34:44;14.40;85.60
59505;DHT22;45321;53.200;5.814;2022-10-31T00:37:10;14.40;85.70
59505;DHT22;45321;53.200;5.814;2022-10-31T00:39:36;14.30;85.80
59505;DHT22;45321;53.200;5.814;2022-10-31T00:42:01;14.30;86.00
59505;DHT22;45321;53.200;5.814;2022-10-31T00:44:27;14.30;85.70
59505;DHT22;45321;53.200;5.814;2022-10-31T00:46:53;14.30;85.70
59505;DHT22;45321;53.200;5.814;2022-10-31T00:49:18;14.30;85.80
59505;DHT22;45321;53.200;5.814;2022-10-31T00:51:44;14.30;85.90
59505;DHT22;45321;53.200;5.814;2022-10-31T00:54:10;14.30;85.90
59505;DHT22;45321;53.200;5.814;2022-10-31T00:56:35;14.30;86.10
59505;DHT22;45321;53.200;5.814;2022-10-31T00:59:01;14.30;85.90
59505;DHT22;45321;53.200;5.814;2022-10-31T01:01:27;14.30;86.20
59505;DHT22;45321;53.200;5.814;2022-10-31T01:03:53;14.30;86.20
59505;DHT22;45321;53.200;5.814;2022-10-31T01:06:18;14.30;86.40
59505;DHT22;45321;53.200;5.814;2022-10-31T01:08:47;14.30;86.10
59505;DHT22;45321;53.200;5.814;2022-10-31T01:11:15;14.30;86.30
59505;DHT22;45321;53.200;5.814;2022-10-31T01:13:44;14.30;86.10
59505;DHT22;45321;53.200;5.814;2022-10-31T01:16:13;14.30;86.00
59505;DHT22;45321;53.200;5.814;2022-10-31T01:18:39;14.20;86.10
59505;DHT22;45321;53.200;5.814;2022-10-31T01:21:08;14.30;86.10
59505;DHT22;45321;53.200;5.814;2022-10-31T01:23:35;14.30;86.30
59505;DHT22;45321;53.200;5.814;2022-10-31T01:26:10;14.20;86.20
59505;DHT22;45321;53.200;5.814;2022-10-31T01:28:38;14.20;86.10
59505;DHT22;45321;53.200;5.814;2022-10-31T01:31:07;14.20;86.10
59505;DHT22;45321;53.200;5.814;2022-10-31T01:33:34;14.20;86.10
59505;DHT22;45321;53.200;5.814;2022-10-31T01:36:00;14.20;85.80
59505;DHT22;45321;53.200;5.814;2022-10-31T01:38:26;14.20;86.00
59505;DHT22;45321;53.200;5.814;2022-10-31T01:40:52;14.20;85.90
59505;DHT22;45321;53.200;5.814;2022-10-31T01:43:19;14.20;86.10
59505;DHT22;45321;53.200;5.814;2022-10-31T01:45:50;14.10;86.00
59505;DHT22;45321;53.200;5.814;2022-10-31T01:48:20;14.10;85.80
59505;DHT22;45321;53.200;5.814;2022-10-31T01:50:48;14.10;86.00
59505;DHT22;45321;53.200;5.814;2022-10-31T01:53:16;14.10;86.00
59505;DHT22;45321;53.200;5.814;2022-10-31T01:55:44;14.10;85.90
59505;DHT22;45321;53.200;5.814;2022-10-31T01:58:14;14.20;85.80
59505;DHT22;45321;53.200;5.814;2022-10-31T02:00:43;14.10;85.90
59505;DHT22;45321;53.200;5.814;2022-10-31T02:03:10;14.00;86.00
59505;DHT22;45321;53.200;5.814;2022-10-31T02:05:37;14.10;86.10
59505;DHT22;45321;53.200;5.814;2022-10-31T02:08:16;14.10;86.00
59505;DHT22;45321;53.200;5.814;2022-10-31T02:10:44;14.00;85.90
59505;DHT22;45321;53.200;5.814;2022-10-31T02:13:10;14.10;85.90
59505;DHT22;45321;53.200;5.814;2022-10-31T02:15:39;14.00;85.80
59505;DHT22;45321;53.200;5.814;2022-10-31T02:18:05;14.00;85.70
59505;DHT22;45321;53.200;5.814;2022-10-31T02:32:15;13.90;85.50
59505;DHT22;45321;53.200;5.814;2022-10-31T02:40:16;13.80;85.40
59505;DHT22;45321;53.200;5.814;2022-10-31T02:42:49;13.80;85.30
59505;DHT22;45321;53.200;5.814;2022-10-31T02:45:26;13.80;85.50
59505;DHT22;45321;53.200;5.814;2022-10-31T02:47:57;13.70;85.40
59505;DHT22;45321;53.200;5.814;2022-10-31T02:50:28;13.70;85.30
59505;DHT22;45321;53.200;5.814;2022-10-31T02:52:55;13.70;85.40
59505;DHT22;45321;53.200;5.814;2022-10-31T02:58:14;13.60;85.40
59505;DHT22;45321;53.200;5.814;2022-10-31T03:09:38;13.50;85.50
59505;DHT22;45321;53.200;5.814;2022-10-31T03:12:26;13.50;85.50
59505;DHT22;45321;53.200;5.814;2022-10-31T03:15:14;13.50;85.30
59505;DHT22;45321;53.200;5.814;2022-10-31T03:20:20;13.50;85.20
59505;DHT22;45321;53.200;5.814;2022-10-31T03:22:48;13.40;85.30
59505;DHT22;45321;53.200;5.814;2022-10-31T03:25:13;13.50;85.20
59505;DHT22;45321;53.200;5.814;2022-10-31T03:27:41;13.40;85.10
59505;DHT22;45321;53.200;5.814;2022-10-31T03:30:08;13.40;85.10
59505;DHT22;45321;53.200;5.814;2022-10-31T03:32:42;13.30;85.00
59505;DHT22;45321;53.200;5.814;2022-10-31T03:35:10;13.30;85.20
59505;DHT22;45321;53.200;5.814;2022-10-31T03:37:39;13.30;85.20
59505;DHT22;45321;53.200;5.814;2022-10-31T03:40:07;13.30;85.20
59505;DHT22;45321;53.200;5.814;2022-10-31T03:42:38;13.30;85.00
59505;DHT22;45321;53.200;5.814;2022-10-31T03:45:12;13.30;85.10
59505;DHT22;45321;53.200;5.814;2022-10-31T03:47:41;13.30;85.00
59505;DHT22;45321;53.200;5.814;2022-10-31T03:50:09;13.30;85.00
59505;DHT22;45321;53.200;5.814;2022-10-31T03:52:49;13.30;85.00
59505;DHT22;45321;53.200;5.814;2022-10-31T03:55:29;13.20;85.00
59505;DHT22;45321;53.200;5.814;2022-10-31T03:58:00;13.20;85.10
59505;DHT22;45321;53.200;5.814;2022-10-31T04:00:28;13.20;85.20
59505;DHT22;45321;53.200;5.814;2022-10-31T04:03:09;13.20;85.10
59505;DHT22;45321;53.200;5.814;2022-10-31T04:05:37;13.20;85.00
59505;DHT22;45321;53.200;5.814;2022-10-31T04:08:07;13.10;84.90
59505;DHT22;45321;53.200;5.814;2022-10-31T04:10:35;13.10;85.00
59505;DHT22;45321;53.200;5.814;2022-10-31T04:13:08;13.10;85.00
59505;DHT22;45321;53.200;5.814;2022-10-31T04:15:37;13.00;85.00
59505;DHT22;45321;53.200;5.814;2022-10-31T04:18:05;13.00;85.00
59505;DHT22;45321;53.200;5.814;2022-10-31T04:20:35;13.00;85.10
59505;DHT22;45321;53.200;5.814;2022-10-31T04:23:04;13.00;85.10
59505;DHT22;45321;53.200;5.814;2022-10-31T04:25:31;12.90;85.20
59505;DHT22;45321;53.200;5.814;2022-10-31T04:27:56;12.90;85.20
59505;DHT22;45321;53.200;5.814;2022-10-31T04:30:22;12.90;85.20
59505;DHT22;45321;53.200;5.814;2022-10-31T04:32:48;13.00;85.20
59505;DHT22;45321;53.200;5.814;2022-10-31T04:35:14;12.90;85.10
59505;DHT22;45321;53.200;5.814;2022-10-31T04:37:39;12.90;85.10
59505;DHT22;45321;53.200;5.814;2022-10-31T04:40:05;12.90;85.10
59505;DHT22;45321;53.200;5.814;2022-10-31T04:42:31;12.90;85.10
59505;DHT22;45321;53.200;5.814;2022-10-31T04:44:57;12.80;85.10
59505;DHT22;45321;53.200;5.814;2022-10-31T04:47:23;12.90;85.10
59505;DHT22;45321;53.200;5.814;2022-10-31T04:49:49;12.80;85.10
59505;DHT22;45321;53.200;5.814;2022-10-31T04:52:14;12.80;85.20
59505;DHT22;45321;53.200;5.814;2022-10-31T04:54:40;12.80;85.10
59505;DHT22;45321;53.200;5.814;2022-10-31T04:57:06;12.80;85.00
59505;DHT22;45321;53.200;5.814;2022-10-31T04:59:32;12.80;85.00
59505;DHT22;45321;53.200;5.814;2022-10-31T05:01:57;12.80;85.00
59505;DHT22;45321;53.200;5.814;2022-10-31T05:04:23;12.80;85.10
59505;DHT22;45321;53.200;5.814;2022-10-31T05:06:52;12.80;85.00
59505;DHT22;45321;53.200;5.814;2022-10-31T05:09:18;12.80;84.80
59505;DHT22;45321;53.200;5.814;2022-10-31T05:11:43;12.70;84.70
59505;DHT22;45321;53.200;5.814;2022-10-31T05:14:09;12.60;84.70
59505;DHT22;45321;53.200;5.814;2022-10-31T05:16:35;12.60;84.80
59505;DHT22;45321;53.200;5.814;2022-10-31T05:19:01;12.50;85.00
59505;DHT22;45321;53.200;5.814;2022-10-31T05:21:26;12.50;85.10
59505;DHT22;45321;53.200;5.814;2022-10-31T05:23:52;12.50;85.20
59505;DHT22;45321;53.200;5.814;2022-10-31T05:26:18;12.50;85.10
59505;DHT22;45321;53.200;5.814;2022-10-31T05:28:43;12.50;85.30
59505;DHT22;45321;53.200;5.814;2022-10-31T05:31:09;12.50;85.40
59505;DHT22;45321;53.200;5.814;2022-10-31T05:33:35;12.50;85.30
59505;DHT22;45321;53.200;5.814;2022-10-31T05:36:00;12.50;85.40
59505;DHT22;45321;53.200;5.814;2022-10-31T05:38:26;12.50;85.50
59505;DHT22;45321;53.200;5.814;2022-10-31T05:40:55;12.50;85.50
59505;DHT22;45321;53.200;5.814;2022-10-31T05:43:23;12.50;85.50
59505;DHT22;45321;53.200;5.814;2022-10-31T05:45:52;12.50;85.50
59505;DHT22;45321;53.200;5.814;2022-10-31T05:48:19;12.50;85.30
59505;DHT22;45321;53.200;5.814;2022-10-31T05:50:47;12.50;85.30
59505;DHT22;45321;53.200;5.814;2022-10-31T05:53:13;12.50;85.20
59505;DHT22;45321;53.200;5.814;2022-10-31T05:55:39;12.50;85.60
59505;DHT22;45321;53.200;5.814;2022-10-31T05:58:06;12.40;85.50
59505;DHT22;45321;53.200;5.814;2022-10-31T06:00:32;12.50;85.60
59505;DHT22;45321;53.200;5.814;2022-10-31T06:03:06;12.50;85.80
59505;DHT22;45321;53.200;5.814;2022-10-31T06:05:32;12.50;85.70
59505;DHT22;45321;53.200;5.814;2022-10-31T06:07:58;12.40;85.50
59505;DHT22;45321;53.200;5.814;2022-10-31T06:10:25;12.40;85.50
59505;DHT22;45321;53.200;5.814;2022-10-31T06:12:51;12.40;85.70
59505;DHT22;45321;53.200;5.814;2022-10-31T06:15:17;12.40;85.60
59505;DHT22;45321;53.200;5.814;2022-10-31T06:17:43;12.40;85.70
59505;DHT22;45321;53.200;5.814;2022-10-31T06:20:09;12.40;85.80
59505;DHT22;45321;53.200;5.814;2022-10-31T06:22:35;12.40;86.00
59505;DHT22;45321;53.200;5.814;2022-10-31T06:25:01;12.40;85.90
59505;DHT22;45321;53.200;5.814;2022-10-31T06:27:27;12.40;86.00
59505;DHT22;45321;53.200;5.814;2022-10-31T06:29:53;12.40;86.00
59505;DHT22;45321;53.200;5.814;2022-10-31T06:32:18;12.40;85.90
59505;DHT22;45321;53.200;5.814;2022-10-31T06:34:44;12.40;85.80
59505;DHT22;45321;53.200;5.814;2022-10-31T06:37:14;12.40;85.90
59505;DHT22;45321;53.200;5.814;2022-10-31T06:39:40;12.30;86.00
59505;DHT22;45321;53.200;5.814;2022-10-31T06:42:06;12.40;85.90
59505;DHT22;45321;53.200;5.814;2022-10-31T06:44:31;12.40;85.90
59505;DHT22;45321;53.200;5.814;2022-10-31T06:46:57;12.40;85.90
59505;DHT22;45321;53.200;5.814;2022-10-31T06:49:26;12.30;86.10
59505;DHT22;45321;53.200;5.814;2022-10-31T06:51:52;12.40;86.00
59505;DHT22;45321;53.200;5.814;2022-10-31T06:54:17;12.30;86.00
59505;DHT22;45321;53.200;5.814;2022-10-31T06:56:45;12.40;85.80
59505;DHT22;45321;53.200;5.814;2022-10-31T06:59:12;12.30;85.90
59505;DHT22;45321;53.200;5.814;2022-10-31T07:01:38;12.30;86.10
59505;DHT22;45321;53.200;5.814;2022-10-31T07:04:03;12.30;86.00
59505;DHT22;45321;53.200;5.814;2022-10-31T07:06:29;12.30;85.80
59505;DHT22;45321;53.200;5.814;2022-10-31T07:08:55;12.30;85.90
59505;DHT22;45321;53.200;5.814;2022-10-31T07:11:20;12.30;85.90
59505;DHT22;45321;53.200;5.814;2022-10-31T07:13:46;12.30;85.90
59505;DHT22;45321;53.200;5.814;2022-10-31T07:16:12;12.30;86.00
59505;DHT22;45321;53.200;5.814;2022-10-31T07:18:39;12.30;86.10
59505;DHT22;45321;53.200;5.814;2022-10-31T07:21:05;12.30;86.20
59505;DHT22;45321;53.200;5.814;2022-10-31T07:23:31;12.30;86.20
59505;DHT22;45321;53.200;5.814;2022-10-31T07:25:58;12.30;86.20
59505;DHT22;45321;53.200;5.814;2022-10-31T07:28:25;12.30;86.30
59505;DHT22;45321;53.200;5.814;2022-10-31T07:30:57;12.30;86.30
59505;DHT22;45321;53.200;5.814;2022-10-31T07:33:24;12.30;86.60
59505;DHT22;45321;53.200;5.814;2022-10-31T07:35:53;12.40;86.40
59505;DHT22;45321;53.200;5.814;2022-10-31T07:38:19;12.40;86.40
59505;DHT22;45321;53.200;5.814;2022-10-31T07:40:52;12.40;86.40
59505;DHT22;45321;53.200;5.814;2022-10-31T07:43:21;12.40;86.50
59505;DHT22;45321;53.200;5.814;2022-10-31T07:45:51;12.40;86.60
59505;DHT22;45321;53.200;5.814;2022-10-31T07:48:17;12.50;86.60
59505;DHT22;45321;53.200;5.814;2022-10-31T07:50:43;12.40;86.50
59505;DHT22;45321;53.200;5.814;2022-10-31T07:53:11;12.40;86.70
59505;DHT22;45321;53.200;5.814;2022-10-31T07:55:37;12.50;86.70
59505;DHT22;45321;53.200;5.814;2022-10-31T07:58:05;12.50;86.70
59505;DHT22;45321;53.200;5.814;2022-10-31T08:00:33;12.50;86.70
59505;DHT22;45321;53.200;5.814;2022-10-31T08:03:07;12.50;86.80
59505;DHT22;45321;53.200;5.814;2022-10-31T08:05:34;12.60;86.90
59505;DHT22;45321;53.200;5.814;2022-10-31T08:08:00;12.60;87.00
59505;DHT22;45321;53.200;5.814;2022-10-31T08:10:26;12.60;87.00
59505;DHT22;45321;53.200;5.814;2022-10-31T08:13:03;12.70;87.00
59505;DHT22;45321;53.200;5.814;2022-10-31T08:15:30;12.70;87.00
59505;DHT22;45321;53.200;5.814;2022-10-31T08:17:55;12.70;87.30
59505;DHT22;45321;53.200;5.814;2022-10-31T08:20:22;12.80;87.30
59505;DHT22;45321;53.200;5.814;2022-10-31T08:22:59;12.80;87.30
59505;DHT22;45321;53.200;5.814;2022-10-31T08:25:26;12.80;87.20
59505;DHT22;45321;53.200;5.814;2022-10-31T08:27:53;12.80;87.20
59505;DHT22;45321;53.200;5.814;2022-10-31T08:30:20;12.90;87.30
59505;DHT22;45321;53.200;5.814;2022-10-31T08:32:47;12.90;87.50
59505;DHT22;45321;53.200;5.814;2022-10-31T08:35:13;13.00;87.40
59505;DHT22;45321;53.200;5.814;2022-10-31T08:37:38;13.10;87.30
59505;DHT22;45321;53.200;5.814;2022-10-31T08:40:05;13.10;87.40
59505;DHT22;45321;53.200;5.814;2022-10-31T08:42:32;13.20;87.50
59505;DHT22;45321;53.200;5.814;2022-10-31T08:44:57;13.20;87.60
59505;DHT22;45321;53.200;5.814;2022-10-31T08:47:23;13.30;87.50
59505;DHT22;45321;53.200;5.814;2022-10-31T08:49:49;13.30;87.20
59505;DHT22;45321;53.200;5.814;2022-10-31T08:52:15;13.40;87.30
59505;DHT22;45321;53.200;5.814;2022-10-31T08:54:41;13.50;87.20
59505;DHT22;45321;53.200;5.814;2022-10-31T08:57:07;13.60;87.10
59505;DHT22;45321;53.200;5.814;2022-10-31T08:59:32;13.60;86.70
59505;DHT22;45321;53.200;5.814;2022-10-31T09:01:58;13.60;86.70
59505;DHT22;45321;53.200;5.814;2022-10-31T09:04:24;13.80;86.70
59505;DHT22;45321;53.200;5.814;2022-10-31T09:06:50;13.80;86.60
59505;DHT22;45321;53.200;5.814;2022-10-31T09:09:15;13.80;86.50
59505;DHT22;45321;53.200;5.814;2022-10-31T09:11:41;13.80;86.60
59505;DHT22;45321;53.200;5.814;2022-10-31T09:14:10;13.80;86.60
59505;DHT22;45321;53.200;5.814;2022-10-31T09:16:35;14.00;86.50
59505;DHT22;45321;53.200;5.814;2022-10-31T09:19:01;13.90;86.50
59505;DHT22;45321;53.200;5.814;2022-10-31T09:21:27;14.00;86.50
59505;DHT22;45321;53.200;5.814;2022-10-31T09:23:53;14.00;86.50
59505;DHT22;45321;53.200;5.814;2022-10-31T09:26:19;14.00;86.30
59505;DHT22;45321;53.200;5.814;2022-10-31T09:28:48;14.10;86.40
59505;DHT22;45321;53.200;5.814;2022-10-31T09:31:14;14.10;86.40
59505;DHT22;45321;53.200;5.814;2022-10-31T09:33:39;14.10;86.40
59505;DHT22;45321;53.200;5.814;2022-10-31T09:36:05;14.20;86.40
59505;DHT22;45321;53.200;5.814;2022-10-31T09:38:34;14.20;86.60
59505;DHT22;45321;53.200;5.814;2022-10-31T09:44:07;14.30;86.40
59505;DHT22;45321;53.200;5.814;2022-10-31T09:52:32;14.40;86.30
59505;DHT22;45321;53.200;5.814;2022-10-31T09:55:00;14.50;86.30
59505;DHT22;45321;53.200;5.814;2022-10-31T09:57:31;14.50;86.10
59505;DHT22;45321;53.200;5.814;2022-10-31T10:00:04;14.60;86.20
59505;DHT22;45321;53.200;5.814;2022-10-31T10:02:33;14.60;86.00
59505;DHT22;45321;53.200;5.814;2022-10-31T10:05:04;14.60;86.00
59505;DHT22;45321;53.200;5.814;2022-10-31T10:10:34;14.60;86.20
59505;DHT22;45321;53.200;5.814;2022-10-31T10:13:23;14.60;86.30
59505;DHT22;45321;53.200;5.814;2022-10-31T10:16:00;14.70;86.20
59505;DHT22;45321;53.200;5.814;2022-10-31T10:26:50;14.80;86.30
59505;DHT22;45321;53.200;5.814;2022-10-31T10:29:40;14.80;86.10
59505;DHT22;45321;53.200;5.814;2022-10-31T10:32:18;15.00;86.00
59505;DHT22;45321;53.200;5.814;2022-10-31T10:35:38;15.00;85.60
59505;DHT22;45321;53.200;5.814;2022-10-31T10:38:04;15.20;85.60
59505;DHT22;45321;53.200;5.814;2022-10-31T10:40:34;15.30;85.50
59505;DHT22;45321;53.200;5.814;2022-10-31T10:49:17;15.50;84.40
59505;DHT22;45321;53.200;5.814;2022-10-31T10:51:45;15.50;83.90
59505;DHT22;45321;53.200;5.814;2022-10-31T10:57:13;15.70;84.20
59505;DHT22;45321;53.200;5.814;2022-10-31T10:59:43;15.80;84.00
59505;DHT22;45321;53.200;5.814;2022-10-31T11:02:22;16.10;82.60
59505;DHT22;45321;53.200;5.814;2022-10-31T11:04:54;16.20;83.00
59505;DHT22;45321;53.200;5.814;2022-10-31T11:07:21;16.40;81.80
59505;DHT22;45321;53.200;5.814;2022-10-31T11:09:47;16.70;82.00
59505;DHT22;45321;53.200;5.814;2022-10-31T11:12:21;16.80;81.30
59505;DHT22;45321;53.200;5.814;2022-10-31T11:14:53;17.10;80.00
59505;DHT22;45321;53.200;5.814;2022-10-31T11:17:30;17.40;80.30
59505;DHT22;45321;53.200;5.814;2022-10-31T11:20:01;17.70;78.20
59505;DHT22;45321;53.200;5.814;2022-10-31T11:22:28;18.00;78.10
59505;DHT22;45321;53.200;5.814;2022-10-31T11:24:54;18.00;77.20
59505;DHT22;45321;53.200;5.814;2022-10-31T11:27:23;17.90;75.90
59505;DHT22;45321;53.200;5.814;2022-10-31T11:29:50;17.70;76.00
59505;DHT22;45321;53.200;5.814;2022-10-31T11:32:22;17.60;77.00
59505;DHT22;45321;53.200;5.814;2022-10-31T11:35:01;17.70;77.00
59505;DHT22;45321;53.200;5.814;2022-10-31T11:37:31;17.90;77.10
59505;DHT22;45321;53.200;5.814;2022-10-31T11:40:04;18.30;76.40
59505;DHT22;45321;53.200;5.814;2022-10-31T11:42:37;18.80;76.30
59505;DHT22;45321;53.200;5.814;2022-10-31T11:45:13;19.10;73.10
59505;DHT22;45321;53.200;5.814;2022-10-31T11:47:42;19.40;71.50
59505;DHT22;45321;53.200;5.814;2022-10-31T11:50:18;19.60;71.40
59505;DHT22;45321;53.200;5.814;2022-10-31T11:52:44;19.70;71.40
59505;DHT22;45321;53.200;5.814;2022-10-31T11:57:44;19.40;69.20
59505;DHT22;45321;53.200;5.814;2022-10-31T12:00:48;19.30;69.70
59505;DHT22;45321;53.200;5.814;2022-10-31T12:06:01;19.00;70.90
59505;DHT22;45321;53.200;5.814;2022-10-31T12:08:34;18.90;70.10
59505;DHT22;45321;53.200;5.814;2022-10-31T12:14:01;18.70;70.10
59505;DHT22;45321;53.200;5.814;2022-10-31T12:16:52;18.70;71.90
59505;DHT22;45321;53.200;5.814;2022-10-31T12:19:32;18.50;71.40
59505;DHT22;45321;53.200;5.814;2022-10-31T12:27:20;18.10;73.20
59505;DHT22;45321;53.200;5.814;2022-10-31T12:30:08;18.00;73.10
59505;DHT22;45321;53.200;5.814;2022-10-31T12:35:58;18.00;73.70
59505;DHT22;45321;53.200;5.814;2022-10-31T12:58:26;17.90;75.40
59505;DHT22;45321;53.200;5.814;2022-10-31T13:06:39;18.10;74.10
59505;DHT22;45321;53.200;5.814;2022-10-31T13:09:13;18.20;75.10
59505;DHT22;45321;53.200;5.814;2022-10-31T13:11:47;18.20;73.30
59505;DHT22;45321;53.200;5.814;2022-10-31T13:16:45;18.20;74.20
59505;DHT22;45321;53.200;5.814;2022-10-31T13:22:07;18.10;74.60
59505;DHT22;45321;53.200;5.814;2022-10-31T13:27:21;18.20;74.50
59505;DHT22;45321;53.200;5.814;2022-10-31T13:32:42;18.10;72.10
59505;DHT22;45321;53.200;5.814;2022-10-31T13:35:29;18.00;73.40
59505;DHT22;45321;53.200;5.814;2022-10-31T13:41:22;17.80;73.50
59505;DHT22;45321;53.200;5.814;2022-10-31T13:46:44;17.70;74.30
59505;DHT22;45321;53.200;5.814;2022-10-31T13:51:51;17.80;74.10
59505;DHT22;45321;53.200;5.814;2022-10-31T13:54:31;17.70;74.30
59505;DHT22;45321;53.200;5.814;2022-10-31T13:57:01;17.70;74.10
59505;DHT22;45321;53.200;5.814;2022-10-31T13:59:35;17.60;74.60
59505;DHT22;45321;53.200;5.814;2022-10-31T14:02:17;17.60;74.60
59505;DHT22;45321;53.200;5.814;2022-10-31T14:04:56;17.40;74.30
59505;DHT22;45321;53.200;5.814;2022-10-31T14:07:24;17.40;74.80
59505;DHT22;45321;53.200;5.814;2022-10-31T14:09:52;17.40;75.40
59505;DHT22;45321;53.200;5.814;2022-10-31T14:12:41;17.50;75.80
59505;DHT22;45321;53.200;5.814;2022-10-31T14:15:25;17.50;75.50
59505;DHT22;45321;53.200;5.814;2022-10-31T14:17:55;17.50;75.10
59505;DHT22;45321;53.200;5.814;2022-10-31T14:20:36;17.60;75.20
59505;DHT22;45321;53.200;5.814;2022-10-31T14:29:20;17.60;74.60
59505;DHT22;45321;53.200;5.814;2022-10-31T14:34:33;17.50;74.80
59505;DHT22;45321;53.200;5.814;2022-10-31T14:37:50;17.40;75.20
59505;DHT22;45321;53.200;5.814;2022-10-31T14:43:44;17.30;75.70
59505;DHT22;45321;53.200;5.814;2022-10-31T14:51:39;17.20;76.30
59505;DHT22;45321;53.200;5.814;2022-10-31T14:54:10;17.20;76.30
59505;DHT22;45321;53.200;5.814;2022-10-31T14:56:39;17.20;76.20
59505;DHT22;45321;53.200;5.814;2022-10-31T14:59:15;17.20;76.60
59505;DHT22;45321;53.200;5.814;2022-10-31T15:01:47;17.10;76.50
59505;DHT22;45321;53.200;5.814;2022-10-31T15:04:18;17.10;76.40
59505;DHT22;45321;53.200;5.814;2022-10-31T15:06:51;17.00;76.90
59505;DHT22;45321;53.200;5.814;2022-10-31T15:11:51;16.90;77.10
59505;DHT22;45321;53.200;5.814;2022-10-31T15:16:48;16.90;77.20
59505;DHT22;45321;53.200;5.814;2022-10-31T15:19:22;16.90;77.30
59505;DHT22;45321;53.200;5.814;2022-10-31T15:21:51;16.90;77.50
59505;DHT22;45321;53.200;5.814;2022-10-31T15:24:17;16.90;77.30
59505;DHT22;45321;53.200;5.814;2022-10-31T15:26:53;16.80;77.50
59505;DHT22;45321;53.200;5.814;2022-10-31T15:29:24;16.80;77.40
59505;DHT22;45321;53.200;5.814;2022-10-31T15:31:56;16.80;77.60
59505;DHT22;45321;53.200;5.814;2022-10-31T15:34:38;16.80;78.00
59505;DHT22;45321;53.200;5.814;2022-10-31T15:37:04;16.80;78.00
59505;DHT22;45321;53.200;5.814;2022-10-31T15:39:30;16.80;78.20
59505;DHT22;45321;53.200;5.814;2022-10-31T15:41:58;16.80;78.10
59505;DHT22;45321;53.200;5.814;2022-10-31T15:44:34;16.70;77.90
59505;DHT22;45321;53.200;5.814;2022-10-31T15:47:12;16.70;77.90
59505;DHT22;45321;53.200;5.814;2022-10-31T15:49:53;16.60;77.80
59505;DHT22;45321;53.200;5.814;2022-10-31T15:52:37;16.60;77.90
59505;DHT22;45321;53.200;5.814;2022-10-31T15:55:25;16.60;77.90
59505;DHT22;45321;53.200;5.814;2022-10-31T15:58:02;16.60;78.10
59505;DHT22;45321;53.200;5.814;2022-10-31T16:00:31;16.60;78.10
59505;DHT22;45321;53.200;5.814;2022-10-31T16:05:52;16.50;78.30
59505;DHT22;45321;53.200;5.814;2022-10-31T16:08:34;16.50;78.10
59505;DHT22;45321;53.200;5.814;2022-10-31T16:13:38;16.50;78.10
59505;DHT22;45321;53.200;5.814;2022-10-31T16:16:14;16.40;78.10
59505;DHT22;45321;53.200;5.814;2022-10-31T16:18:40;16.40;78.30
59505;DHT22;45321;53.200;5.814;2022-10-31T16:21:08;16.40;78.30
59505;DHT22;45321;53.200;5.814;2022-10-31T16:23:34;16.30;78.60
59505;DHT22;45321;53.200;5.814;2022-10-31T16:26:08;16.30;78.80
59505;DHT22;45321;53.200;5.814;2022-10-31T16:28:54;16.30;78.80
59505;DHT22;45321;53.200;5.814;2022-10-31T16:31:36;16.30;78.90
59505;DHT22;45321;53.200;5.814;2022-10-31T16:34:05;16.30;79.00
59505;DHT22;45321;53.200;5.814;2022-10-31T16:36:33;16.30;79.10
59505;DHT22;45321;53.200;5.814;2022-10-31T16:39:03;16.30;79.20
59505;DHT22;45321;53.200;5.814;2022-10-31T16:41:29;16.30;79.20
59505;DHT22;45321;53.200;5.814;2022-10-31T16:43:55;16.30;79.40
59505;DHT22;45321;53.200;5.814;2022-10-31T16:46:27;16.20;79.30
59505;DHT22;45321;53.200;5.814;2022-10-31T16:48:53;16.20;79.50
59505;DHT22;45321;53.200;5.814;2022-10-31T16:51:19;16.20;79.60
59505;DHT22;45321;53.200;5.814;2022-10-31T16:53:45;16.20;79.60
59505;DHT22;45321;53.200;5.814;2022-10-31T16:56:26;16.20;79.50
59505;DHT22;45321;53.200;5.814;2022-10-31T16:58:52;16.20;79.60
59505;DHT22;45321;53.200;5.814;2022-10-31T17:01:21;16.10;79.50
59505;DHT22;45321;53.200;5.814;2022-10-31T17:03:47;16.10;79.70
59505;DHT22;45321;53.200;5.814;2022-10-31T17:06:13;16.10;79.70
59505;DHT22;45321;53.200;5.814;2022-10-31T17:08:42;16.10;79.70
59505;DHT22;45321;53.200;5.814;2022-10-31T17:11:17;16.10;79.80
59505;DHT22;45321;53.200;5.814;2022-10-31T17:13:44;16.00;79.70
59505;DHT22;45321;53.200;5.814;2022-10-31T17:16:12;16.00;79.80
59505;DHT22;45321;53.200;5.814;2022-10-31T17:18:39;16.00;80.00
59505;DHT22;45321;53.200;5.814;2022-10-31T17:21:05;16.00;80.00
59505;DHT22;45321;53.200;5.814;2022-10-31T17:23:31;16.00;79.90
59505;DHT22;45321;53.200;5.814;2022-10-31T17:25:58;16.00;79.80
59505;DHT22;45321;53.200;5.814;2022-10-31T17:28:24;16.00;79.80
59505;DHT22;45321;53.200;5.814;2022-10-31T17:30:54;16.00;80.00
59505;DHT22;45321;53.200;5.814;2022-10-31T17:33:22;16.00;80.00
59505;DHT22;45321;53.200;5.814;2022-10-31T17:35:51;16.00;80.10
59505;DHT22;45321;53.200;5.814;2022-10-31T17:38:16;15.90;80.00
59505;DHT22;45321;53.200;5.814;2022-10-31T17:40:42;15.90;80.20
59505;DHT22;45321;53.200;5.814;2022-10-31T17:43:09;15.90;80.20
59505;DHT22;45321;53.200;5.814;2022-10-31T17:45:38;15.90;80.30
59505;DHT22;45321;53.200;5.814;2022-10-31T17:48:08;15.90;80.30
59505;DHT22;45321;53.200;5.814;2022-10-31T17:50:35;15.90;80.30
59505;DHT22;45321;53.200;5.814;2022-10-31T17:53:00;15.90;80.30
59505;DHT22;45321;53.200;5.814;2022-10-31T17:55:26;15.90;80.40
59505;DHT22;45321;53.200;5.814;2022-10-31T17:57:52;15.90;80.40
59505;DHT22;45321;53.200;5.814;2022-10-31T18:00:18;15.90;80.40
59505;DHT22;45321;53.200;5.814;2022-10-31T18:02:46;15.80;80.40
59505;DHT22;45321;53.200;5.814;2022-10-31T18:05:14;15.80;80.60
59505;DHT22;45321;53.200;5.814;2022-10-31T18:07:40;15.80;80.60
59505;DHT22;45321;53.200;5.814;2022-10-31T18:10:06;15.80;80.60
59505;DHT22;45321;53.200;5.814;2022-10-31T18:12:35;15.80;80.50
59505;DHT22;45321;53.200;5.814;2022-10-31T18:15:00;15.80;80.70